Terminal Aerodrome Forecast
Issued by NWS

Home | Current Version | Previous Version | Text Only | Print | Product List | Glossary On
Versions: 1 2 3 4 5 6 7 8 9 10 11 12 13 14 15 16 17 18 19 20 21 22 23
000
FTAK31 PAFA 180107 AAA
TAFAGA
TAF AMD
PAGA 180107Z 1801/1824 26005KT 5SM -SN BKN007 OVC012
      TEMPO 1801/1803 1SM -SHSN OVC007
     FM180900 VRB03KT P6SM -SHSN BCFG SCT005 OVC015
     FM181500 00000KT P6SM BKN015 OVC050
     FM182000 29004KT P6SM BKN050 BKN100=

USA.gov is the U.S. government's official web portal to all federal, state and local government web resources and services.